Time;durP1;ratioP1;P1;durP2;ratioP2;P2;SDS_P1;SDS_P2;PMS_P1;PMS_P2;Temp;Humidity;BMP_temperature;BMP_pressure;BME280_temperature;BME280_humidity;BME280_pressure;Samples;Min_cycle;Max_cycle;Signal;HPM_P1;HPM_P2
2023/03/11 00:00:21;;;;;;;;;23.50;19.75;;;;;6.74;59.01;100445.13;5073625;28;45347;-68
2023/03/11 00:02:51;;;;;;;;;20.50;19.25;;;;;6.69;59.56;100447.69;5074146;27;45812;-65
2023/03/11 00:05:44;;;;;;;;;19.25;18.50;;;;;6.74;59.49;100465.97;5077694;28;45578;-65
2023/03/11 00:08:13;;;;;;;;;23.00;19.75;;;;;6.70;59.75;100466.78;5074811;28;45512;-67
2023/03/11 00:10:41;;;;;;;;;18.00;15.00;;;;;6.55;59.85;100465.69;5056085;28;45410;-67
2023/03/11 00:13:11;;;;;;;;;24.25;21.00;;;;;6.54;59.00;100463.94;5072620;28;45488;-67
2023/03/11 00:15:38;;;;;;;;;29.75;27.75;;;;;6.58;59.22;100476.16;5076546;27;47759;-67
2023/03/11 00:18:03;;;;;;;;;37.25;32.25;;;;;6.65;59.17;100487.53;5077894;27;45448;-66
2023/03/11 00:20:33;;;;;;;;;47.50;38.00;;;;;6.61;59.68;100485.72;5069195;28;45350;-65
2023/03/11 00:23:00;;;;;;;;;57.00;45.00;;;;;6.52;59.47;100475.19;5068455;28;46349;-68
2023/03/11 00:25:28;;;;;;;;;51.25;41.25;;;;;6.51;59.05;100471.72;5056144;28;45647;-67
2023/03/11 00:27:54;;;;;;;;;47.00;37.25;;;;;6.50;58.84;100469.06;5054884;28;45342;-68
2023/03/11 00:30:21;;;;;;;;;43.00;34.50;;;;;6.50;59.32;100456.06;5055213;28;45330;-65
2023/03/11 00:32:51;;;;;;;;;40.25;33.50;;;;;6.43;59.19;100454.22;5054693;28;45333;-67
2023/03/11 00:35:22;;;;;;;;;42.00;33.25;;;;;6.43;59.48;100447.31;5054431;28;46532;-66
2023/03/11 00:37:48;;;;;;;;;36.50;31.25;;;;;6.48;59.50;100463.00;5073094;28;45441;-67
2023/03/11 00:40:18;;;;;;;;;34.50;30.00;;;;;6.48;59.76;100468.22;5073604;28;45504;-68
2023/03/11 00:42:44;;;;;;;;;37.00;31.25;;;;;6.34;59.32;100452.38;5065077;28;45162;-67
2023/03/11 00:45:11;;;;;;;;;30.75;22.00;;;;;6.43;59.49;100465.53;5060625;28;47939;-67
2023/03/11 00:47:37;;;;;;;;;26.50;23.50;;;;;6.31;58.99;100470.53;5076669;28;45413;-67
2023/03/11 00:50:04;;;;;;;;;27.00;25.50;;;;;6.30;58.64;100454.06;5079678;28;45464;-67
2023/03/11 00:52:29;;;;;;;;;31.75;29.75;;;;;6.26;59.33;100444.44;5062495;28;45394;-64
2023/03/11 00:54:57;;;;;;;;;24.75;24.00;;;;;6.32;59.30;100454.97;5072746;28;45673;-67
2023/03/11 00:57:22;;;;;;;;;20.50;19.25;;;;;6.30;59.12;100437.59;5067195;28;45546;-67
2023/03/11 00:59:48;;;;;;;;;23.00;21.75;;;;;6.36;58.71;100443.75;5062186;28;45438;-66
2023/03/11 01:02:13;;;;;;;;;24.50;23.25;;;;;6.37;58.98;100434.22;5060570;28;45766;-66
2023/03/11 01:04:39;;;;;;;;;24.00;22.00;;;;;6.35;58.90;100451.53;5075841;28;46671;-67
2023/03/11 01:07:04;;;;;;;;;24.50;22.00;;;;;6.34;59.70;100465.41;5075645;27;45333;-65
2023/03/11 01:09:30;;;;;;;;;23.25;20.00;;;;;6.35;59.56;100469.72;5080572;28;45490;-65
2023/03/11 01:11:56;;;;;;;;;20.00;19.25;;;;;6.43;59.28;100498.47;5062394;28;45467;-68
2023/03/11 01:14:22;;;;;;;;;23.00;19.50;;;;;6.42;58.93;100483.72;5065912;28;46310;-66
2023/03/11 01:16:48;;;;;;;;;24.75;21.00;;;;;6.49;58.67;100485.56;5079927;28;45827;-66
2023/03/11 01:19:13;;;;;;;;;21.75;20.25;;;;;6.48;59.27;100469.06;5073696;27;45473;-66
2023/03/11 01:21:39;;;;;;;;;21.00;21.00;;;;;6.42;59.56;100458.56;5064270;28;45336;-66
2023/03/11 01:24:05;;;;;;;;;18.50;17.00;;;;;6.34;59.55;100445.47;5066804;28;46662;-67
2023/03/11 01:26:30;;;;;;;;;19.75;19.00;;;;;6.43;59.48;100462.94;5080190;27;45505;-67
2023/03/11 01:28:56;;;;;;;;;24.00;17.00;;;;;6.45;59.09;100462.94;5078730;27;45438;-68
2023/03/11 01:31:21;;;;;;;;;15.25;12.50;;;;;6.45;59.47;100463.81;5077057;28;45476;-66
2023/03/11 01:33:47;;;;;;;;;14.00;12.00;;;;;6.53;58.82;100450.94;5057925;28;46877;-67
2023/03/11 01:36:13;;;;;;;;;14.25;12.75;;;;;6.61;58.48;100451.03;5076203;28;45788;-68
2023/03/11 01:38:38;;;;;;;;;13.25;11.00;;;;;6.52;58.37;100442.22;5058415;28;45494;-68
2023/03/11 01:41:05;;;;;;;;;11.25;10.75;;;;;6.59;58.38;100464.00;5080651;28;45342;-65
2023/03/11 01:43:42;;;;;;;;;11.50;9.25;;;;;6.53;58.72;100479.53;5061366;28;47128;-66
2023/03/11 01:46:22;;;;;;;;;15.50;11.75;;;;;6.52;58.42;100473.44;5080403;28;45450;-69
2023/03/11 01:48:53;;;;;;;;;11.00;9.50;;;;;6.48;58.32;100469.06;5066193;28;46116;-67
2023/03/11 01:51:39;;;;;;;;;10.00;9.00;;;;;6.39;58.81;100460.25;5080418;27;45453;-67
2023/03/11 01:54:09;;;;;;;;;10.50;10.50;;;;;6.33;58.99;100438.50;5059320;28;46459;-67
2023/03/11 01:56:35;;;;;;;;;11.25;10.75;;;;;6.42;59.38;100445.56;5072947;28;45487;-66
2023/03/11 01:59:02;;;;;;;;;11.75;10.00;;;;;6.51;59.26;100463.03;5078743;28;45580;-67
2023/03/11 02:01:28;;;;;;;;;12.00;10.25;;;;;6.41;59.20;100477.63;5078306;28;45459;-67
2023/03/11 02:03:55;;;;;;;;;11.50;10.00;;;;;6.35;58.79;100457.59;5078127;28;45854;-66
2023/03/11 02:06:23;;;;;;;;;6.50;6.50;;;;;6.41;58.37;100456.84;5079892;28;45753;-65
2023/03/11 02:08:50;;;;;;;;;7.75;7.75;;;;;6.56;59.02;100484.78;5079563;27;45544;-68
2023/03/11 02:11:23;;;;;;;;;8.25;7.50;;;;;6.56;58.41;100482.19;5076800;28;45559;-68
2023/03/11 02:13:51;;;;;;;;;10.00;8.00;;;;;6.55;57.90;100486.53;5075035;27;45453;-66
2023/03/11 02:16:17;;;;;;;;;6.75;6.75;;;;;6.43;58.57;100475.03;5075876;28;45508;-65
2023/03/11 02:18:51;;;;;;;;;6.50;6.50;;;;;6.48;59.02;100492.50;5075217;27;45433;-67
2023/03/11 02:21:26;;;;;;;;;7.50;6.50;;;;;6.37;58.96;100475.84;5075780;27;45668;-67
2023/03/11 02:24:00;;;;;;;;;7.50;7.50;;;;;6.54;58.68;100496.91;5074913;28;45611;-65
2023/03/11 02:26:39;;;;;;;;;12.00;9.25;;;;;6.44;58.85;100482.88;5074499;27;45496;-67
2023/03/11 02:29:08;;;;;;;;;9.00;8.50;;;;;6.29;59.58;100480.94;5061263;28;45468;-65
2023/03/11 02:31:37;;;;;;;;;11.00;11.00;;;;;6.26;59.78;100501.66;5078416;28;45489;-65
2023/03/11 02:34:06;;;;;;;;;12.00;10.75;;;;;6.22;60.52;100491.22;5079548;27;45563;-65
2023/03/11 02:36:38;;;;;;;;;8.75;8.50;;;;;6.14;60.74;100502.34;5079542;27;45435;-66
2023/03/11 02:39:05;;;;;;;;;9.75;9.75;;;;;5.95;60.53;100472.56;5075088;28;45481;-65
2023/03/11 02:41:34;;;;;;;;;11.25;8.75;;;;;6.08;61.21;100488.41;5058471;28;45644;-65
2023/03/11 02:44:01;;;;;;;;;10.50;10.50;;;;;6.03;61.60;100485.72;5063667;28;45513;-65
2023/03/11 02:46:27;;;;;;;;;9.00;9.00;;;;;6.04;62.35;100465.78;5075491;28;45542;-66
2023/03/11 02:48:55;;;;;;;;;14.50;11.00;;;;;6.05;61.26;100442.44;5062349;28;45281;-66
2023/03/11 02:51:20;;;;;;;;;7.50;7.50;;;;;6.07;60.78;100445.03;5059679;28;45584;-66
2023/03/11 02:53:58;;;;;;;;;9.00;8.50;;;;;6.14;61.50;100447.75;5047234;28;47555;-66
2023/03/11 02:56:24;;;;;;;;;9.25;9.25;;;;;6.09;61.53;100449.41;5058629;28;45396;-64
2023/03/11 02:58:50;;;;;;;;;10.50;10.50;;;;;6.09;61.35;100448.53;5059153;28;45364;-65
2023/03/11 03:01:16;;;;;;;;;14.75;10.00;;;;;6.06;61.32;100453.69;5065808;28;45288;-68
2023/03/11 03:03:41;;;;;;;;;12.75;9.75;;;;;6.11;61.24;100459.84;5060720;28;47798;-68
2023/03/11 03:06:07;;;;;;;;;8.50;8.50;;;;;6.08;61.71;100473.66;5067285;28;45408;-67
2023/03/11 03:08:33;;;;;;;;;10.25;10.25;;;;;6.03;61.33;100479.66;5073030;28;45415;-67
2023/03/11 03:10:58;;;;;;;;;10.50;9.50;;;;;6.02;62.05;100480.47;5060411;28;45385;-66
2023/03/11 03:13:26;;;;;;;;;10.25;8.75;;;;;6.03;61.94;100466.66;5073029;28;48364;-67
2023/03/11 03:15:51;;;;;;;;;8.50;8.25;;;;;5.97;61.63;100464.81;5074348;27;45619;-68
2023/03/11 03:18:21;;;;;;;;;11.25;9.25;;;;;6.01;62.30;100452.75;5078127;28;45291;-66
2023/03/11 03:20:46;;;;;;;;;9.75;8.00;;;;;6.05;62.14;100460.63;5079042;28;45515;-67
2023/03/11 03:23:12;;;;;;;;;10.75;10.75;;;;;6.02;61.89;100450.16;5078883;28;46123;-66
2023/03/11 03:25:41;;;;;;;;;10.25;9.00;;;;;6.08;62.10;100459.78;5075712;28;46323;-67
2023/03/11 03:28:07;;;;;;;;;10.75;9.75;;;;;6.03;62.16;100449.31;5043068;28;45548;-66
2023/03/11 03:30:32;;;;;;;;;9.50;8.50;;;;;6.02;62.42;100437.16;5074611;27;45600;-67
2023/03/11 03:32:58;;;;;;;;;16.25;12.50;;;;;5.89;62.74;100430.00;5072722;27;46829;-67
2023/03/11 03:35:24;;;;;;;;;13.25;10.00;;;;;5.86;62.97;100423.03;5078067;28;45456;-67
2023/03/11 03:37:49;;;;;;;;;10.75;10.50;;;;;5.86;63.07;100422.13;5076989;28;45454;-66
2023/03/11 03:40:15;;;;;;;;;9.75;9.75;;;;;5.90;63.37;100437.81;5056600;28;45342;-64
2023/03/11 03:42:41;;;;;;;;;15.00;14.00;;;;;5.89;63.00;100432.59;5067336;28;45667;-68
2023/03/11 03:45:07;;;;;;;;;11.00;9.50;;;;;5.81;63.26;100428.97;5056158;28;45562;-66
2023/03/11 03:47:33;;;;;;;;;12.25;10.75;;;;;5.78;63.17;100440.19;5073959;28;45475;-67
2023/03/11 03:50:01;;;;;;;;;8.75;8.75;;;;;5.79;63.64;100446.25;5074610;28;45422;-66
2023/03/11 03:52:26;;;;;;;;;10.00;9.75;;;;;5.77;63.43;100435.88;5075503;28;46091;-67
2023/03/11 03:54:52;;;;;;;;;6.75;6.25;;;;;5.83;63.54;100446.34;5077775;28;45330;-66
2023/03/11 03:57:17;;;;;;;;;11.75;11.00;;;;;5.93;63.14;100450.88;5075737;27;45474;-65
2023/03/11 03:59:43;;;;;;;;;11.75;11.75;;;;;5.94;63.33;100454.38;5074474;27;45737;-67
2023/03/11 04:02:08;;;;;;;;;11.75;9.25;;;;;5.87;63.30;100466.34;5055152;28;47717;-67
2023/03/11 04:04:34;;;;;;;;;7.50;5.00;;;;;5.97;63.88;100474.34;5074596;28;45373;-65
2023/03/11 04:07:02;;;;;;;;;14.75;11.50;;;;;6.01;63.37;100465.75;5078027;28;45437;-65
2023/03/11 04:09:27;;;;;;;;;10.00;10.00;;;;;5.94;63.01;100469.97;5078410;28;45389;-67
2023/03/11 04:11:53;;;;;;;;;10.00;8.75;;;;;5.90;63.30;100470.72;5056862;28;45467;-68
2023/03/11 04:14:18;;;;;;;;;11.00;10.75;;;;;5.90;62.93;100473.31;5074059;27;45505;-65
2023/03/11 04:16:44;;;;;;;;;9.00;7.00;;;;;5.78;62.98;100463.59;5073585;28;45394;-66
2023/03/11 04:19:10;;;;;;;;;11.75;11.75;;;;;5.71;62.97;100454.81;5073705;27;45821;-67
2023/03/11 04:21:37;;;;;;;;;12.75;11.25;;;;;5.80;63.31;100472.28;5073761;28;46317;-66
2023/03/11 04:24:02;;;;;;;;;15.00;11.50;;;;;5.73;63.72;100466.09;5073111;28;45646;-66
2023/03/11 04:26:28;;;;;;;;;12.00;11.50;;;;;5.66;63.79;100453.00;5073763;28;45610;-67
2023/03/11 04:28:53;;;;;;;;;11.75;10.25;;;;;5.60;63.73;100434.69;5073913;28;45680;-66
2023/03/11 04:31:19;;;;;;;;;15.00;12.00;;;;;5.70;64.07;100447.88;5073052;28;46079;-66
2023/03/11 04:34:55;;;;;;;;;15.00;9.00;;;;;5.82;64.69;100464.53;5051274;28;45401;-67
2023/03/11 04:37:21;;;;;;;;;11.50;11.50;;;;;5.82;63.95;100473.19;5031015;28;45545;-67
2023/03/11 04:39:49;;;;;;;;;13.75;11.00;;;;;5.73;64.61;100476.50;5028347;28;45601;-68
2023/03/11 04:42:15;;;;;;;;;13.75;13.00;;;;;5.67;64.27;100475.50;5030174;28;45510;-67
2023/03/11 04:44:40;;;;;;;;;11.75;11.75;;;;;5.69;64.33;100485.09;5015032;28;47497;-68
2023/03/11 04:47:06;;;;;;;;;16.00;15.00;;;;;5.62;63.93;100477.16;5027264;28;45465;-68
2023/03/11 04:49:31;;;;;;;;;16.00;13.00;;;;;5.65;64.96;100488.50;5014732;28;45469;-68
2023/03/11 04:51:57;;;;;;;;;17.75;14.50;;;;;5.67;64.28;100491.09;5027680;28;45375;-68
2023/03/11 04:54:24;;;;;;;;;13.25;12.50;;;;;5.66;64.82;100502.38;5014868;28;45415;-68
2023/03/11 04:56:49;;;;;;;;;14.50;14.00;;;;;5.61;65.35;100499.69;5014163;28;45463;-67
2023/03/11 04:59:18;;;;;;;;;18.75;17.00;;;;;5.53;65.37;100488.28;5014365;28;45399;-69
2023/03/11 05:01:54;;;;;;;;;17.25;14.25;;;;;5.53;65.20;100503.88;5014421;28;45500;-68
2023/03/11 05:04:24;;;;;;;;;19.00;17.00;;;;;5.48;65.22;100497.69;5021299;28;45341;-69
2023/03/11 05:06:50;;;;;;;;;18.00;14.75;;;;;5.40;65.65;100501.88;5030508;28;45356;-67
2023/03/11 05:09:16;;;;;;;;;16.00;15.25;;;;;5.48;65.74;100510.69;5026382;28;45554;-68
2023/03/11 05:11:42;;;;;;;;;15.75;14.00;;;;;5.50;66.29;100489.09;5015390;28;45481;-68
2023/03/11 05:14:08;;;;;;;;;20.75;20.75;;;;;5.37;65.62;100461.13;5010637;28;46125;-68
2023/03/11 05:16:33;;;;;;;;;14.25;12.75;;;;;5.42;65.72;100484.59;5010548;28;45428;-68
2023/03/11 05:18:59;;;;;;;;;19.50;17.00;;;;;5.42;66.08;100506.25;5009469;28;45358;-69
2023/03/11 05:21:25;;;;;;;;;14.50;14.50;;;;;5.45;66.81;100518.41;5009320;28;45572;-70
2023/03/11 05:23:50;;;;;;;;;18.00;15.75;;;;;5.44;66.41;100516.69;5013924;28;45636;-68
2023/03/11 05:26:16;;;;;;;;;14.75;14.00;;;;;5.50;66.61;100519.38;5014076;28;45823;-68
2023/03/11 05:28:42;;;;;;;;;21.75;18.75;;;;;5.51;66.39;100506.44;5018762;28;45438;-68
2023/03/11 05:31:09;;;;;;;;;20.00;16.50;;;;;5.52;65.96;100507.28;5009348;28;45467;-69
2023/03/11 05:33:35;;;;;;;;;15.25;15.00;;;;;5.40;66.90;100494.94;5027832;28;46075;-68
2023/03/11 05:36:08;;;;;;;;;20.00;16.00;;;;;5.46;66.97;100509.81;5034274;28;45449;-67
2023/03/11 05:38:35;;;;;;;;;18.25;17.75;;;;;5.48;67.06;100516.78;5030034;28;45497;-67
2023/03/11 05:41:00;;;;;;;;;18.75;16.00;;;;;5.38;67.38;100501.84;5040448;28;45534;-72
2023/03/11 05:43:26;;;;;;;;;26.00;18.75;;;;;5.50;66.46;100516.78;5027863;28;47700;-69
2023/03/11 05:45:52;;;;;;;;;16.50;15.25;;;;;5.32;67.24;100492.22;5022014;28;45464;-67
2023/03/11 05:48:17;;;;;;;;;20.25;17.25;;;;;5.45;66.59;100524.47;5026190;28;45339;-67
2023/03/11 05:50:43;;;;;;;;;19.75;16.25;;;;;5.39;66.72;100516.59;5028905;28;45316;-68
2023/03/11 05:53:08;;;;;;;;;13.25;13.25;;;;;5.50;66.99;100535.88;5029003;28;46131;-68
2023/03/11 05:55:33;;;;;;;;;17.75;16.50;;;;;5.53;66.85;100527.25;5033143;28;45514;-68
2023/03/11 05:57:59;;;;;;;;;13.50;12.75;;;;;5.58;67.18;100527.34;5033502;28;45551;-68
2023/03/11 06:00:28;;;;;;;;;16.00;16.00;;;;;5.67;66.60;100538.78;5014346;28;45645;-68
2023/03/11 06:02:54;;;;;;;;;18.00;16.50;;;;;5.65;66.52;100529.22;5009584;28;45437;-69
2023/03/11 06:05:20;;;;;;;;;23.25;17.00;;;;;5.67;66.78;100524.88;5019510;28;45533;-68
2023/03/11 06:07:46;;;;;;;;;14.25;14.00;;;;;5.62;66.67;100526.53;5031033;28;45894;-69
2023/03/11 06:10:12;;;;;;;;;21.50;18.00;;;;;5.57;66.43;100518.66;5022226;28;45505;-67
2023/03/11 06:12:38;;;;;;;;;16.50;14.25;;;;;5.53;67.22;100540.25;5029681;28;46925;-68
2023/03/11 06:15:05;;;;;;;;;15.25;13.50;;;;;5.51;66.87;100540.19;5038336;28;45334;-68
2023/03/11 06:17:31;;;;;;;;;16.50;15.00;;;;;5.53;66.58;100538.50;5034818;28;45277;-67
2023/03/11 06:19:57;;;;;;;;;10.75;10.00;;;;;5.53;66.49;100538.50;4998961;28;46185;-68
2023/03/11 06:22:22;;;;;;;;;16.25;12.50;;;;;5.57;66.71;100528.16;5018144;28;46239;-68
2023/03/11 06:24:49;;;;;;;;;16.00;15.00;;;;;5.69;65.93;100542.25;5025961;28;46005;-67
2023/03/11 06:27:15;;;;;;;;;14.75;13.75;;;;;5.69;66.31;100541.38;5017625;28;45486;-67
2023/03/11 06:29:40;;;;;;;;;12.50;11.75;;;;;5.67;66.20;100543.97;5015779;28;45555;-68
2023/03/11 06:32:06;;;;;;;;;19.25;15.75;;;;;5.56;65.67;100524.69;5012190;28;46707;-68
2023/03/11 06:34:38;;;;;;;;;16.75;15.25;;;;;5.67;66.47;100543.06;5014662;28;45990;-67
2023/03/11 06:37:17;;;;;;;;;16.00;15.50;;;;;5.62;65.82;100540.38;5015538;28;45545;-69
2023/03/11 06:39:50;;;;;;;;;13.25;12.00;;;;;5.56;65.84;100548.09;5016112;28;45724;-67
2023/03/11 06:42:16;;;;;;;;;12.25;12.00;;;;;5.35;66.13;100532.09;5020843;28;45450;-67
2023/03/11 06:44:42;;;;;;;;;11.25;11.00;;;;;5.30;65.93;100543.25;5019304;28;45482;-68
2023/03/11 06:47:07;;;;;;;;;15.50;12.75;;;;;5.31;66.07;100562.28;5008584;28;45434;-68
2023/03/11 06:49:33;;;;;;;;;17.00;13.00;;;;;5.20;66.10;100550.84;5019532;28;45682;-68
2023/03/11 06:51:59;;;;;;;;;16.25;12.00;;;;;5.24;66.64;100534.44;5005864;28;45511;-67
2023/03/11 06:54:24;;;;;;;;;14.00;12.00;;;;;5.22;66.60;100539.63;5000533;28;45640;-68
2023/03/11 06:56:50;;;;;;;;;11.50;11.50;;;;;5.27;66.15;100534.53;5017890;28;45594;-68
2023/03/11 06:59:15;;;;;;;;;13.25;12.00;;;;;5.31;66.07;100555.41;5015046;28;45383;-69
2023/03/11 07:01:41;;;;;;;;;11.50;9.75;;;;;5.35;66.63;100550.25;4996677;28;46840;-68
2023/03/11 07:04:14;;;;;;;;;15.75;13.50;;;;;5.42;66.65;100544.34;5031460;28;45464;-68
2023/03/11 07:06:46;;;;;;;;;16.75;11.50;;;;;5.45;66.50;100553.06;5018983;28;45372;-68
2023/03/11 07:09:23;;;;;;;;;14.75;11.00;;;;;5.52;66.25;100561.84;5017100;28;45640;-68
2023/03/11 07:11:50;;;;;;;;;13.50;12.00;;;;;5.55;66.12;100571.44;5027176;28;46130;-68
2023/03/11 07:14:16;;;;;;;;;13.00;13.00;;;;;5.63;66.11;100585.47;5033982;28;45340;-68
2023/03/11 07:16:42;;;;;;;;;14.25;11.00;;;;;5.58;65.70;100580.16;5034359;28;45821;-68
2023/03/11 07:19:08;;;;;;;;;10.50;9.50;;;;;5.61;65.61;100590.63;5036840;28;45411;-68
2023/03/11 07:21:34;;;;;;;;;12.75;12.50;;;;;5.59;65.59;100586.25;5035865;28;45451;-67
2023/03/11 07:24:01;;;;;;;;;13.50;11.00;;;;;5.56;65.83;100579.25;4997265;28;45857;-68
2023/03/11 07:26:28;;;;;;;;;13.50;11.00;;;;;5.37;65.43;100554.63;5038121;28;45365;-69
2023/03/11 07:28:55;;;;;;;;;12.50;9.75;;;;;5.61;65.49;100592.34;5034214;28;45372;-70
2023/03/11 07:31:23;;;;;;;;;11.50;9.00;;;;;5.59;65.04;100589.72;5033662;28;45626;-69
2023/03/11 07:33:49;;;;;;;;;11.25;10.75;;;;;5.52;65.08;100601.69;5033922;28;45386;-68
2023/03/11 07:36:21;;;;;;;;;12.00;10.00;;;;;5.49;65.15;100606.84;5034156;28;45340;-69
2023/03/11 07:38:48;;;;;;;;;12.25;9.25;;;;;5.47;64.71;100607.66;5013268;28;45446;-69
2023/03/11 07:41:14;;;;;;;;;11.50;9.75;;;;;5.49;65.15;100608.56;5031281;28;45514;-68
2023/03/11 07:43:41;;;;;;;;;10.50;9.00;;;;;5.48;64.95;100607.69;5013173;28;45467;-69
2023/03/11 07:46:21;;;;;;;;;10.50;10.00;;;;;5.66;64.51;100625.34;5031281;28;45824;-68
2023/03/11 07:48:48;;;;;;;;;11.00;11.00;;;;;5.74;65.41;100625.50;5039029;28;45587;-70
2023/03/11 07:51:26;;;;;;;;;13.25;12.75;;;;;5.78;64.92;100627.31;5038591;28;46389;-68
2023/03/11 07:53:54;;;;;;;;;10.50;8.50;;;;;5.77;64.81;100623.00;5017185;28;45346;-69
2023/03/11 07:56:22;;;;;;;;;7.75;7.75;;;;;5.97;66.13;100625.13;5031509;28;45274;-67
2023/03/11 07:58:48;;;;;;;;;8.25;7.00;;;;;5.94;64.81;100590.41;5033390;28;45513;-67
2023/03/11 08:01:19;;;;;;;;;10.50;9.50;;;;;6.18;63.90;100612.50;5023869;28;45988;-68
2023/03/11 08:03:48;;;;;;;;;11.00;9.00;;;;;6.22;64.93;100600.47;5011494;28;45573;-67
2023/03/11 08:06:25;;;;;;;;;11.00;11.00;;;;;6.41;62.42;100615.53;5016786;28;45530;-69
2023/03/11 08:08:51;;;;;;;;;7.75;7.75;;;;;6.41;62.17;100627.63;5014624;28;45424;-69
2023/03/11 08:11:19;;;;;;;;;9.50;9.50;;;;;6.53;62.39;100636.53;5011410;28;46466;-67
2023/03/11 08:13:45;;;;;;;;;14.00;11.00;;;;;6.67;61.93;100641.06;5027918;28;45814;-69
2023/03/11 08:16:14;;;;;;;;;11.00;11.00;;;;;6.74;61.79;100628.22;5033379;28;45743;-69
2023/03/11 08:18:40;;;;;;;;;10.00;10.00;;;;;6.81;60.90;100623.97;5033378;28;45831;-69
2023/03/11 08:21:08;;;;;;;;;13.00;8.75;;;;;6.93;60.75;100642.38;5034102;28;45576;-68
2023/03/11 08:23:34;;;;;;;;;11.75;11.25;;;;;6.90;60.66;100649.25;5037598;28;45338;-68
2023/03/11 08:26:07;;;;;;;;;11.25;10.25;;;;;6.80;60.96;100649.13;5035117;28;45387;-68
2023/03/11 08:28:33;;;;;;;;;12.75;12.00;;;;;6.66;60.50;100635.00;5012451;28;45505;-68
2023/03/11 08:30:59;;;;;;;;;12.25;10.25;;;;;6.49;60.31;100620.84;5030160;28;45427;-70
2023/03/11 08:33:24;;;;;;;;;12.25;11.25;;;;;6.59;60.70;100626.22;5019169;28;45434;-67
2023/03/11 08:35:50;;;;;;;;;11.00;11.00;;;;;6.70;60.52;100633.34;5029934;28;45625;-68
2023/03/11 08:38:15;;;;;;;;;12.00;11.25;;;;;6.76;60.94;100634.31;5031752;28;45409;-68
2023/03/11 08:40:41;;;;;;;;;15.00;13.25;;;;;6.80;60.55;100633.50;5015667;28;47806;-68
2023/03/11 08:43:06;;;;;;;;;17.00;15.25;;;;;6.82;60.29;100630.06;5027045;28;45653;-67
2023/03/11 08:45:33;;;;;;;;;14.00;12.75;;;;;6.78;60.48;100613.50;5020425;28;45515;-67
2023/03/11 08:47:59;;;;;;;;;15.75;14.25;;;;;6.67;60.10;100615.94;5018842;28;45572;-68
2023/03/11 08:50:25;;;;;;;;;12.25;12.25;;;;;6.61;59.95;100614.97;5011825;28;46726;-69
2023/03/11 08:52:51;;;;;;;;;16.00;13.50;;;;;6.74;60.54;100642.97;5011406;28;45370;-67
2023/03/11 08:55:23;;;;;;;;;14.25;12.00;;;;;6.93;59.94;100645.00;5013097;28;45589;-68
2023/03/11 08:57:49;;;;;;;;;13.75;13.00;;;;;7.06;58.79;100634.75;5015581;28;45714;-68
2023/03/11 09:00:15;;;;;;;;;13.75;13.75;;;;;7.05;58.52;100649.50;5013301;28;47271;-69
2023/03/11 09:02:42;;;;;;;;;11.75;10.75;;;;;6.99;57.78;100639.00;5021701;28;45429;-69
2023/03/11 09:05:08;;;;;;;;;13.75;11.00;;;;;6.96;57.49;100662.38;5017640;28;45375;-69
2023/03/11 09:07:33;;;;;;;;;10.25;9.50;;;;;6.74;58.16;100640.34;5031328;28;45709;-68
2023/03/11 09:09:59;;;;;;;;;9.25;8.50;;;;;6.80;57.96;100659.53;5035927;28;46553;-69
2023/03/11 09:12:25;;;;;;;;;12.75;10.50;;;;;6.97;57.61;100645.91;5037303;28;45340;-68
2023/03/11 09:14:50;;;;;;;;;12.25;11.00;;;;;7.05;57.21;100641.69;5015770;28;45379;-69
2023/03/11 09:17:19;;;;;;;;;15.75;13.50;;;;;7.03;57.32;100634.72;5014370;28;45573;-69
2023/03/11 09:19:45;;;;;;;;;11.75;9.50;;;;;7.03;57.75;100648.59;5021830;28;46823;-68
2023/03/11 09:22:11;;;;;;;;;12.00;11.25;;;;;7.09;57.42;100640.88;5022321;28;45945;-69
2023/03/11 09:24:37;;;;;;;;;10.75;8.75;;;;;7.21;56.75;100633.25;5026142;28;45497;-69
2023/03/11 09:27:02;;;;;;;;;12.00;9.50;;;;;7.34;56.85;100649.91;4997583;28;45502;-68
2023/03/11 09:29:28;;;;;;;;;13.00;10.75;;;;;7.26;56.77;100630.72;5013696;28;46667;-68
2023/03/11 09:31:54;;;;;;;;;15.25;13.00;;;;;7.15;56.76;100645.31;5014546;28;46007;-70
2023/03/11 09:34:19;;;;;;;;;12.75;10.25;;;;;6.95;57.45;100643.28;5030732;28;45563;-69
2023/03/11 09:36:45;;;;;;;;;13.75;11.00;;;;;6.89;57.49;100635.38;5026037;28;45584;-69
2023/03/11 09:39:12;;;;;;;;;10.25;10.00;;;;;6.89;57.90;100644.91;5018710;28;46018;-69
2023/03/11 09:41:41;;;;;;;;;11.25;10.75;;;;;6.87;58.42;100633.59;5016114;28;46079;-68
2023/03/11 09:44:25;;;;;;;;;14.00;14.00;;;;;7.07;58.14;100644.31;5012871;28;45954;-69
2023/03/11 09:47:22;;;;;;;;;14.25;11.00;;;;;7.07;58.14;100647.81;5016797;28;45762;-68
2023/03/11 09:49:53;;;;;;;;;12.50;9.75;;;;;7.14;58.01;100644.44;5016057;28;45610;-68
2023/03/11 09:53:03;;;;;;;;;13.75;11.50;;;;;7.36;56.80;100644.75;5015684;28;45669;-69
2023/03/11 09:55:41;;;;;;;;;9.25;8.25;;;;;7.49;55.99;100641.44;4999249;28;45325;-67
2023/03/11 09:58:43;;;;;;;;;11.50;9.50;;;;;7.61;55.42;100636.38;5015509;28;45460;-69
2023/03/11 10:01:33;;;;;;;;;7.75;7.75;;;;;7.81;55.02;100639.22;5019433;28;46694;-69
2023/03/11 10:04:19;;;;;;;;;11.00;10.25;;;;;8.16;54.69;100643.06;5037268;28;45427;-70
2023/03/11 10:06:46;;;;;;;;;10.00;9.50;;;;;8.40;53.40;100655.50;5021565;28;45426;-70
2023/03/11 10:09:11;;;;;;;;;8.75;7.50;;;;;8.43;52.95;100659.03;5038912;28;45714;-69
2023/03/11 10:11:55;;;;;;;;;6.25;6.25;;;;;8.38;52.46;100663.31;5035091;28;46223;-68
2023/03/11 10:14:27;;;;;;;;;7.50;7.50;;;;;8.51;52.01;100666.06;5013863;28;45462;-69
2023/03/11 10:17:20;;;;;;;;;10.25;7.50;;;;;8.56;51.89;100670.47;5027394;28;45382;-70
2023/03/11 10:20:11;;;;;;;;;9.50;9.50;;;;;8.58;51.94;100673.97;5026589;28;45822;-69
2023/03/11 10:22:58;;;;;;;;;10.25;8.75;;;;;8.50;51.68;100657.38;5034468;28;46614;-69
2023/03/11 10:25:41;;;;;;;;;9.50;9.50;;;;;8.53;51.68;100680.88;5035008;28;45581;-69
2023/03/11 10:28:17;;;;;;;;;11.25;9.75;;;;;8.32;51.71;100673.69;5017872;28;45447;-69
2023/03/11 10:30:48;;;;;;;;;9.75;9.00;;;;;8.26;52.09;100661.47;5020983;28;45765;-70
2023/03/11 10:33:44;;;;;;;;;8.75;7.75;;;;;8.29;52.61;100655.38;5038961;28;45706;-69
2023/03/11 10:36:17;;;;;;;;;7.00;7.00;;;;;8.48;52.41;100657.34;5017009;28;45509;-70
2023/03/11 10:38:47;;;;;;;;;6.75;6.75;;;;;8.66;51.97;100648.81;4997751;28;45509;-72
2023/03/11 10:41:25;;;;;;;;;21.00;17.00;;;;;8.90;51.52;100660.31;5015914;28;45461;-71
2023/03/11 10:43:59;;;;;;;;;8.25;7.75;;;;;8.73;51.63;100657.53;5014702;28;45472;-68
2023/03/11 10:46:27;;;;;;;;;9.00;7.75;;;;;8.82;52.11;100659.38;5014697;28;45594;-69
2023/03/11 10:48:53;;;;;;;;;8.25;8.25;;;;;8.86;51.81;100671.59;5036508;28;45445;-68
2023/03/11 10:51:25;;;;;;;;;8.50;7.50;;;;;8.78;51.81;100673.25;5034996;28;45401;-68
2023/03/11 10:53:57;;;;;;;;;9.50;8.25;;;;;8.60;51.69;100668.78;5036628;28;45665;-68
2023/03/11 10:56:26;;;;;;;;;8.50;6.00;;;;;8.76;51.72;100668.03;5038595;28;45482;-68
2023/03/11 10:58:52;;;;;;;;;7.25;7.25;;;;;8.73;51.03;100657.53;5020693;28;45395;-69
2023/03/11 11:01:20;;;;;;;;;7.75;6.50;;;;;8.70;51.68;100654.91;5027546;28;45587;-68
2023/03/11 11:03:48;;;;;;;;;11.25;9.50;;;;;8.82;51.20;100661.97;5033546;28;45490;-68
2023/03/11 11:06:32;;;;;;;;;8.75;8.75;;;;;8.88;50.69;100655.06;5032786;28;45985;-69
2023/03/11 11:09:14;;;;;;;;;12.25;8.75;;;;;8.94;50.36;100656.84;5016561;28;45434;-68
2023/03/11 11:11:40;;;;;;;;;8.00;7.75;;;;;9.07;50.63;100655.22;5007874;28;45585;-69
2023/03/11 11:14:08;;;;;;;;;7.25;7.25;;;;;9.25;49.94;100639.63;5015689;28;46783;-69
2023/03/11 11:16:34;;;;;;;;;9.75;8.50;;;;;9.44;49.57;100647.56;5029309;28;45520;-68
2023/03/11 11:19:13;;;;;;;;;5.75;5.75;;;;;10.37;48.38;100644.47;5045744;28;45584;-69
2023/03/11 11:21:42;;;;;;;;;10.75;10.50;;;;;11.49;45.43;100630.38;5030043;28;46031;-71
2023/03/11 11:24:42;;;;;;;;;12.75;11.00;;;;;12.28;44.40;100635.22;5018667;28;45880;-69
2023/03/11 11:27:19;;;;;;;;;10.00;8.00;;;;;12.35;42.67;100638.69;4985117;28;45538;-68
2023/03/11 11:29:45;;;;;;;;;5.75;5.25;;;;;12.26;42.97;100629.09;5038632;28;45412;-69